createdAt,value
2019-05-01T00:01:33.488Z,9.50
2019-05-01T00:04:04.478Z,9.50
2019-05-01T00:06:39.047Z,9.50
2019-05-01T00:09:10.200Z,9.50
2019-05-01T00:11:39.442Z,9.50
2019-05-01T00:14:09.433Z,9.40
2019-05-01T00:16:39.467Z,9.40
2019-05-01T00:19:08.626Z,9.30
2019-05-01T00:21:37.862Z,9.30
2019-05-01T00:24:07.062Z,9.20
2019-05-01T00:26:36.219Z,9.20
2019-05-01T00:29:05.631Z,9.10
2019-05-01T00:31:34.870Z,9.10
2019-05-01T00:34:04.075Z,9.10
2019-05-01T00:36:33.239Z,9.10
2019-05-01T00:39:02.439Z,9.00
2019-05-01T00:41:31.790Z,9.10
2019-05-01T00:44:02.650Z,9.20
2019-05-01T00:46:32.150Z,9.10
2019-05-01T00:49:01.320Z,9.10
2019-05-01T00:51:30.477Z,9.10
2019-05-01T00:53:59.751Z,9.20
2019-05-01T00:56:30.750Z,9.20
2019-05-01T00:59:10.616Z,9.30
2019-05-01T01:01:53.478Z,9.20
2019-05-01T01:04:22.705Z,9.30
2019-05-01T01:06:51.932Z,9.30
2019-05-01T01:09:21.454Z,9.30
2019-05-01T01:11:51.442Z,9.30
2019-05-01T01:14:20.590Z,9.30
2019-05-01T01:16:49.746Z,9.30
2019-05-01T01:19:18.946Z,9.20
2019-05-01T01:21:48.113Z,9.10
2019-05-01T01:24:17.697Z,9.00
2019-05-01T01:26:46.899Z,9.10
2019-05-01T01:29:16.053Z,9.20
2019-05-01T01:31:45.532Z,9.20
2019-05-01T01:34:14.937Z,9.30
2019-05-01T01:36:44.104Z,9.30
2019-05-01T01:39:13.379Z,9.40
2019-05-01T01:41:43.566Z,9.50
2019-05-01T01:44:14.611Z,9.40
2019-05-01T01:46:46.242Z,9.40
2019-05-01T01:49:16.572Z,9.50
2019-05-01T01:51:46.071Z,9.50
2019-05-01T01:54:15.978Z,9.50
2019-05-01T01:56:45.323Z,9.40
2019-05-01T01:59:14.922Z,9.10
2019-05-01T02:01:45.713Z,8.70
2019-05-01T02:04:16.690Z,8.70
2019-05-01T02:06:47.860Z,8.70
2019-05-01T02:09:17.222Z,8.60
2019-05-01T02:11:48.535Z,8.50
2019-05-01T02:14:17.827Z,8.50
2019-05-01T02:16:46.995Z,8.50
2019-05-01T02:19:16.186Z,8.50
2019-05-01T02:21:45.495Z,8.40
2019-05-01T02:24:14.738Z,8.30
2019-05-01T02:27:01.170Z,8.30
2019-05-01T02:29:34.009Z,8.30
2019-05-01T02:32:04.311Z,8.30
2019-05-01T02:34:35.916Z,8.30
2019-05-01T02:37:05.781Z,8.30
2019-05-01T02:39:37.387Z,8.30
2019-05-01T02:42:09.587Z,8.30
2019-05-01T02:44:42.385Z,8.20
2019-05-01T02:47:14.727Z,8.30
2019-05-01T02:49:53.862Z,8.20
2019-05-01T02:52:26.438Z,8.20
2019-05-01T02:54:59.010Z,8.20
2019-05-01T02:57:29.274Z,8.10
2019-05-01T02:59:59.599Z,8.20
2019-05-01T03:02:30.406Z,8.10
2019-05-01T03:05:00.733Z,8.00
2019-05-01T03:07:33.107Z,8.00
2019-05-01T03:10:04.145Z,8.00
2019-05-01T03:12:36.784Z,8.00
2019-05-01T03:15:06.517Z,8.10
2019-05-01T03:17:42.035Z,8.10
2019-05-01T03:20:31.803Z,8.10
2019-05-01T03:23:18.110Z,8.00
2019-05-01T03:25:48.752Z,8.00
2019-05-01T03:28:18.549Z,8.10
2019-05-01T03:30:48.941Z,8.10
2019-05-01T03:33:18.939Z,8.10
2019-05-01T03:35:48.744Z,8.10
2019-05-01T03:38:18.728Z,8.20
2019-05-01T03:40:48.475Z,8.20
2019-05-01T03:43:18.045Z,8.20
2019-05-01T03:45:47.462Z,8.10
2019-05-01T03:48:17.182Z,8.00
2019-05-01T03:50:47.254Z,7.90
2019-05-01T03:53:17.767Z,7.90
2019-05-01T03:55:47.205Z,8.00
2019-05-01T03:58:16.829Z,8.00
2019-05-01T04:01:00.314Z,8.10
2019-05-01T04:03:32.540Z,8.10
2019-05-01T04:06:02.922Z,8.10
2019-05-01T04:08:33.634Z,8.10
2019-05-01T04:11:03.177Z,8.10
2019-05-01T04:13:33.244Z,8.10
2019-05-01T04:16:02.597Z,8.00
2019-05-01T04:18:32.509Z,8.00
2019-05-01T04:21:02.090Z,8.00
2019-05-01T04:23:32.212Z,8.10
2019-05-01T04:26:02.235Z,8.20
2019-05-01T04:28:37.050Z,8.20
2019-05-01T04:31:11.085Z,8.30
2019-05-01T04:33:41.970Z,8.50
2019-05-01T04:36:16.351Z,8.60
2019-05-01T04:38:48.477Z,8.80
2019-05-01T04:41:18.151Z,9.00
2019-05-01T04:43:47.389Z,9.00
2019-05-01T04:46:16.712Z,9.10
2019-05-01T04:48:46.277Z,9.00
2019-05-01T04:51:15.762Z,9.00
2019-05-01T04:53:45.590Z,9.20
2019-05-01T04:56:14.741Z,9.30
2019-05-01T04:58:44.272Z,9.40
2019-05-01T05:01:14.231Z,9.50
2019-05-01T05:03:46.095Z,9.60
2019-05-01T05:06:16.081Z,9.70
2019-05-01T05:08:45.426Z,9.60
2019-05-01T05:11:17.547Z,9.60
2019-05-01T05:14:07.203Z,9.70
2019-05-01T05:16:48.032Z,9.70
2019-05-01T05:19:18.469Z,9.70
2019-05-01T05:21:48.372Z,9.80
2019-05-01T05:24:17.699Z,9.80
2019-05-01T05:26:47.115Z,10.00
2019-05-01T05:29:19.569Z,9.90
2019-05-01T05:31:49.673Z,10.10
2019-05-01T05:34:23.870Z,10.30
2019-05-01T05:36:57.634Z,10.30
2019-05-01T05:39:32.623Z,10.50
2019-05-01T05:42:04.200Z,10.60
2019-05-01T05:44:34.889Z,10.50
2019-05-01T05:47:04.379Z,10.60
2019-05-01T05:49:34.204Z,10.80
2019-05-01T05:52:05.729Z,10.90
2019-05-01T05:54:56.193Z,11.30
2019-05-01T05:57:30.297Z,11.50
2019-05-01T06:00:09.563Z,11.60
2019-05-01T06:02:48.677Z,11.90
2019-05-01T06:05:38.593Z,11.90
2019-05-01T06:08:11.198Z,11.90
2019-05-01T06:11:03.241Z,12.20
2019-05-01T06:13:52.535Z,12.30
2019-05-01T06:16:42.217Z,12.30
2019-05-01T06:19:25.664Z,12.50
2019-05-01T06:22:14.301Z,12.70
2019-05-01T06:24:46.136Z,13.50
2019-05-01T06:27:16.436Z,13.90
2019-05-01T06:29:45.769Z,14.10
2019-05-01T06:32:15.013Z,15.10
2019-05-01T06:34:44.421Z,16.00
2019-05-01T06:37:13.759Z,16.70
2019-05-01T06:39:47.837Z,17.20
2019-05-01T06:42:16.805Z,16.80
2019-05-01T06:44:48.768Z,17.00
2019-05-01T06:47:26.399Z,18.40
2019-05-01T06:50:13.429Z,19.40
2019-05-01T06:52:42.922Z,19.80
2019-05-01T06:55:12.418Z,20.00
2019-05-01T06:57:43.848Z,20.30
2019-05-01T07:00:15.175Z,20.80
2019-05-01T07:02:46.594Z,21.50
2019-05-01T07:05:16.500Z,21.40
2019-05-01T07:07:48.105Z,21.90
2019-05-01T07:10:29.808Z,20.60
2019-05-01T07:12:49.626Z,19.90
2019-05-01T07:15:21.866Z,20.20
2019-05-01T07:17:50.465Z,21.20
2019-05-01T07:20:37.503Z,22.20
2019-05-01T07:23:06.830Z,22.50
2019-05-01T07:25:39.533Z,21.90
2019-05-01T07:28:06.850Z,22.20
2019-05-01T07:30:43.935Z,21.90
2019-05-01T07:33:16.691Z,21.80
2019-05-01T07:35:45.190Z,21.80
2019-05-01T07:38:14.414Z,22.00
2019-05-01T07:40:44.581Z,22.60
2019-05-01T07:43:18.908Z,23.40
2019-05-01T07:45:50.561Z,24.20
2019-05-01T07:48:22.785Z,24.40
2019-05-01T07:50:52.408Z,24.30
2019-05-01T07:53:23.776Z,24.70
2019-05-01T07:55:53.885Z,24.10
2019-05-01T07:58:23.337Z,23.70
2019-05-01T08:00:57.788Z,22.90
2019-05-01T08:03:27.096Z,22.10
2019-05-01T08:05:56.258Z,21.60
2019-05-01T08:08:25.456Z,21.20
2019-05-01T08:10:54.686Z,20.80
2019-05-01T08:13:23.853Z,20.70
2019-05-01T08:15:54.093Z,20.70
2019-05-01T08:18:27.941Z,20.80
2019-05-01T08:21:06.184Z,20.90
2019-05-01T08:23:35.567Z,20.90
2019-05-01T08:26:08.759Z,20.30
2019-05-01T08:28:53.794Z,20.40
2019-05-01T08:31:27.877Z,21.20
2019-05-01T08:33:59.878Z,22.10
2019-05-01T08:36:29.042Z,22.50
2019-05-01T08:38:58.193Z,22.60
2019-05-01T08:41:31.818Z,22.50
2019-05-01T08:43:58.251Z,22.90
2019-05-01T08:46:34.990Z,23.20
2019-05-01T08:49:06.903Z,23.30
2019-05-01T08:51:36.834Z,23.90
2019-05-01T08:54:06.229Z,23.90
2019-05-01T08:56:35.388Z,24.40
2019-05-01T08:59:04.677Z,24.60
2019-05-01T09:01:34.050Z,24.90
2019-05-01T09:04:12.729Z,23.90
2019-05-01T09:06:39.038Z,23.20
2019-05-01T09:09:09.930Z,22.60
2019-05-01T09:11:39.038Z,22.20
2019-05-01T09:14:08.258Z,22.10
2019-05-01T09:16:37.528Z,22.80
2019-05-01T09:19:06.722Z,23.00
2019-05-01T09:21:37.998Z,22.90
2019-05-01T09:24:06.935Z,22.30
2019-05-01T09:26:40.216Z,21.40
2019-05-01T09:29:17.903Z,21.30
2019-05-01T09:31:48.303Z,21.70
2019-05-01T09:34:19.143Z,22.40
2019-05-01T09:36:48.497Z,22.90
2019-05-01T09:39:19.829Z,23.00
2019-05-01T09:41:48.987Z,23.20
2019-05-01T09:44:18.198Z,23.20
2019-05-01T09:46:47.440Z,23.20
2019-05-01T09:49:18.318Z,22.90
2019-05-01T09:51:52.448Z,23.40
2019-05-01T09:54:37.777Z,24.00
2019-05-01T09:57:06.981Z,24.40
2019-05-01T09:59:36.137Z,24.70
2019-05-01T10:02:07.921Z,24.60
2019-05-01T10:04:36.179Z,24.60
2019-05-01T10:07:07.242Z,24.40
2019-05-01T10:09:36.404Z,23.50
2019-05-01T10:12:05.667Z,23.30
2019-05-01T10:14:36.337Z,23.30
2019-05-01T10:17:06.414Z,23.70
2019-05-01T10:19:35.623Z,23.90
2019-05-01T10:22:04.848Z,23.50
2019-05-01T10:24:37.580Z,22.90
2019-05-01T10:27:07.643Z,23.10
2019-05-01T10:29:56.861Z,22.60
2019-05-01T10:32:33.048Z,22.50
2019-05-01T10:35:14.230Z,22.90
2019-05-01T10:37:40.768Z,23.40
2019-05-01T10:40:11.503Z,23.40
2019-05-01T10:42:41.117Z,23.60
2019-05-01T10:45:11.175Z,24.00
2019-05-01T10:47:40.330Z,24.10
2019-05-01T10:50:09.831Z,24.10
2019-05-01T10:52:39.030Z,23.70
2019-05-01T10:55:08.431Z,23.50
2019-05-01T10:57:40.142Z,23.20
2019-05-01T11:00:09.434Z,22.70
2019-05-01T11:02:38.673Z,22.90
2019-05-01T11:05:08.180Z,23.40
2019-05-01T11:07:37.375Z,23.60
2019-05-01T11:10:08.362Z,23.30
2019-05-01T11:12:37.624Z,23.10
2019-05-01T11:15:09.419Z,23.10
2019-05-01T11:17:38.638Z,22.90
2019-05-01T11:20:08.429Z,22.40
2019-05-01T11:22:37.630Z,22.40
2019-05-01T11:25:08.980Z,22.70
2019-05-01T11:27:38.199Z,22.50
2019-05-01T11:30:08.158Z,22.00
2019-05-01T11:32:39.022Z,21.90
2019-05-01T11:35:22.810Z,22.30
2019-05-01T11:38:09.808Z,22.60
2019-05-01T11:40:40.713Z,22.10
2019-05-01T11:43:10.586Z,21.40
2019-05-01T11:45:39.751Z,21.30
2019-05-01T11:48:08.978Z,21.40
2019-05-01T11:50:38.639Z,21.50
2019-05-01T11:53:07.799Z,21.70
2019-05-01T11:55:37.013Z,21.90
2019-05-01T11:58:07.257Z,22.10
2019-05-01T12:00:36.423Z,21.60
2019-05-01T12:03:05.628Z,21.30
2019-05-01T12:05:34.790Z,21.20
2019-05-01T12:08:04.089Z,21.20
2019-05-01T12:10:34.184Z,21.10
2019-05-01T12:13:03.403Z,20.70
2019-05-01T12:15:32.589Z,20.60
2019-05-01T12:18:01.802Z,20.50
2019-05-01T12:20:31.100Z,20.80
2019-05-01T12:23:00.367Z,21.10
2019-05-01T12:25:29.570Z,20.90
2019-05-01T12:27:59.091Z,20.70
2019-05-01T12:30:28.246Z,20.90
2019-05-01T12:32:57.430Z,21.20
2019-05-01T12:35:26.587Z,20.80
2019-05-01T12:37:57.398Z,20.60
2019-05-01T12:40:26.799Z,20.80
2019-05-01T12:42:55.953Z,21.10
2019-05-01T12:45:25.115Z,21.30
2019-05-01T12:47:56.437Z,20.80
2019-05-01T12:50:25.747Z,20.40
2019-05-01T12:52:59.152Z,20.30
2019-05-01T12:55:32.760Z,20.00
2019-05-01T12:58:01.923Z,19.90
2019-05-01T13:00:46.875Z,19.90
2019-05-01T13:03:16.041Z,19.90
2019-05-01T13:05:45.298Z,20.30
2019-05-01T13:08:14.585Z,20.40
2019-05-01T13:10:43.745Z,20.40
2019-05-01T13:13:12.977Z,20.10
2019-05-01T13:15:42.182Z,20.10
2019-05-01T13:18:11.341Z,20.50
2019-05-01T13:20:40.536Z,20.90
2019-05-01T13:23:09.747Z,20.90
2019-05-01T13:25:38.893Z,20.70
2019-05-01T13:28:26.474Z,20.30
2019-05-01T13:31:09.521Z,20.40
2019-05-01T13:33:38.751Z,20.30
2019-05-01T13:36:07.903Z,20.10
2019-05-01T13:38:37.076Z,20.00
2019-05-01T13:41:06.687Z,20.30
2019-05-01T13:43:35.925Z,20.60
2019-05-01T13:46:05.343Z,20.40
2019-05-01T13:48:34.527Z,20.60
2019-05-01T13:51:03.742Z,20.80
2019-05-01T13:53:32.900Z,21.10
2019-05-01T13:56:02.538Z,21.20
2019-05-01T13:58:33.403Z,21.20
2019-05-01T14:01:02.630Z,21.10
2019-05-01T14:03:32.028Z,21.00
2019-05-01T14:06:01.249Z,20.80
2019-05-01T14:08:30.515Z,20.70
2019-05-01T14:10:59.875Z,20.80
2019-05-01T14:13:29.093Z,20.70
2019-05-01T14:15:58.245Z,20.30
2019-05-01T14:18:27.711Z,20.40
2019-05-01T14:21:10.237Z,20.30
2019-05-01T14:23:47.172Z,20.20
2019-05-01T14:26:16.319Z,20.20
2019-05-01T14:28:45.472Z,20.30
2019-05-01T14:31:14.677Z,20.40
2019-05-01T14:33:43.898Z,20.30
2019-05-01T14:36:13.062Z,20.40
2019-05-01T14:38:42.642Z,20.50
2019-05-01T14:41:11.803Z,20.70
2019-05-01T14:43:40.959Z,20.70
2019-05-01T14:46:10.285Z,20.50
2019-05-01T14:48:39.470Z,20.60
2019-05-01T14:51:08.706Z,20.60
2019-05-01T14:53:37.911Z,20.80
2019-05-01T14:56:07.144Z,20.90
2019-05-01T14:58:36.293Z,20.80
2019-05-01T15:01:06.438Z,20.60
2019-05-01T15:03:35.603Z,20.50
2019-05-01T15:06:04.844Z,20.10
2019-05-01T15:08:35.053Z,20.00
2019-05-01T15:11:04.551Z,20.10
2019-05-01T15:13:44.718Z,20.30
2019-05-01T15:16:18.357Z,20.20
2019-05-01T15:18:54.710Z,20.00
2019-05-01T15:21:23.938Z,20.00
2019-05-01T15:23:54.000Z,20.20
2019-05-01T15:26:23.432Z,20.10
2019-05-01T15:28:52.591Z,20.10
2019-05-01T15:31:21.758Z,20.00
2019-05-01T15:33:51.311Z,20.00
2019-05-01T15:36:20.458Z,20.00
2019-05-01T15:38:49.618Z,19.90
2019-05-01T15:41:36.764Z,19.60
2019-05-01T15:44:07.635Z,19.30
2019-05-01T15:46:38.437Z,19.10
2019-05-01T15:49:07.639Z,19.10
2019-05-01T15:51:36.910Z,19.10
2019-05-01T15:54:06.073Z,19.10
2019-05-01T15:56:35.838Z,19.10
2019-05-01T15:59:05.266Z,18.70
2019-05-01T16:01:34.427Z,18.40
2019-05-01T16:04:04.266Z,18.20
2019-05-01T16:06:33.431Z,18.00
2019-05-01T16:09:02.649Z,17.90
2019-05-01T16:11:33.501Z,17.80
2019-05-01T16:14:02.729Z,17.80
2019-05-01T16:16:32.032Z,17.70
2019-05-01T16:19:01.231Z,17.60
2019-05-01T16:21:30.392Z,17.40
2019-05-01T16:23:59.796Z,17.50
2019-05-01T16:26:28.996Z,17.50
2019-05-01T16:28:58.149Z,17.50
2019-05-01T16:31:27.310Z,17.50
2019-05-01T16:33:56.510Z,17.50
2019-05-01T16:36:25.661Z,17.50
2019-05-01T16:39:02.505Z,17.50
2019-05-01T16:41:32.245Z,17.50
2019-05-01T16:44:01.468Z,17.30
2019-05-01T16:46:30.675Z,17.20
2019-05-01T16:48:59.906Z,17.20
2019-05-01T16:51:29.066Z,17.20
2019-05-01T16:53:58.337Z,17.20
2019-05-01T16:56:27.545Z,17.20
2019-05-01T16:58:57.157Z,17.20
2019-05-01T17:01:28.284Z,17.20
2019-05-01T17:04:15.535Z,17.00
2019-05-01T17:06:48.920Z,17.00
2019-05-01T17:09:36.246Z,16.90
2019-05-01T17:12:06.385Z,16.80
2019-05-01T17:14:35.794Z,16.80
2019-05-01T17:17:07.399Z,16.70
2019-05-01T17:19:36.599Z,16.60
2019-05-01T17:22:09.188Z,16.40
2019-05-01T17:24:36.752Z,16.30
2019-05-01T17:27:06.342Z,16.20
2019-05-01T17:29:35.502Z,16.10
2019-05-01T17:32:05.603Z,16.10
2019-05-01T17:34:34.825Z,16.10
2019-05-01T17:37:04.351Z,16.00
2019-05-01T17:39:33.513Z,15.90
2019-05-01T17:42:03.823Z,15.70
2019-05-01T17:44:34.520Z,15.60
2019-05-01T17:47:03.759Z,15.50
2019-05-01T17:49:33.221Z,15.60
2019-05-01T17:52:02.446Z,15.60
2019-05-01T17:54:31.848Z,15.50
2019-05-01T17:57:01.141Z,15.50
2019-05-01T17:59:30.361Z,15.30
2019-05-01T18:02:05.246Z,15.40
2019-05-01T18:04:52.908Z,15.30
2019-05-01T18:07:22.429Z,15.20
2019-05-01T18:09:55.608Z,15.10
2019-05-01T18:12:23.462Z,15.10
2019-05-01T18:14:53.491Z,15.00
2019-05-01T18:17:22.723Z,14.90
2019-05-01T18:19:51.982Z,14.80
2019-05-01T18:22:27.021Z,14.80
2019-05-01T18:25:04.378Z,14.60
2019-05-01T18:27:54.491Z,14.50
2019-05-01T18:30:23.928Z,14.50
2019-05-01T18:32:53.087Z,14.40
2019-05-01T18:35:22.902Z,14.40
2019-05-01T18:37:53.809Z,14.40
2019-05-01T18:40:24.673Z,14.30
2019-05-01T18:42:53.979Z,14.30
2019-05-01T18:45:46.193Z,14.20
2019-05-01T18:48:16.091Z,14.20
2019-05-01T18:50:49.350Z,14.20
2019-05-01T18:53:16.810Z,14.10
2019-05-01T18:55:46.000Z,14.20
2019-05-01T18:58:15.153Z,14.30
2019-05-01T19:00:44.600Z,14.30
2019-05-01T19:03:13.912Z,14.20
2019-05-01T19:05:46.610Z,14.10
2019-05-01T19:08:14.124Z,14.20
2019-05-01T19:10:43.282Z,14.00
2019-05-01T19:13:13.457Z,13.90
2019-05-01T19:15:43.125Z,13.70
2019-05-01T19:18:12.353Z,13.70
2019-05-01T19:20:41.592Z,13.60
2019-05-01T19:23:11.570Z,13.70
2019-05-01T19:25:40.847Z,13.70
2019-05-01T19:28:10.597Z,13.70
2019-05-01T19:30:39.841Z,13.70
2019-05-01T19:33:09.209Z,13.70
2019-05-01T19:35:38.365Z,13.80
2019-05-01T19:38:08.215Z,13.90
2019-05-01T19:40:37.410Z,13.90
2019-05-01T19:43:06.843Z,13.90
2019-05-01T19:45:36.063Z,13.90
2019-05-01T19:48:06.671Z,13.90
2019-05-01T19:50:39.841Z,13.90
2019-05-01T19:53:10.196Z,13.90
2019-05-01T19:55:39.976Z,14.00
2019-05-01T19:58:08.714Z,14.00
2019-05-01T20:00:50.023Z,14.10
2019-05-01T20:03:19.785Z,14.00
2019-05-01T20:05:49.600Z,14.00
2019-05-01T20:08:19.489Z,14.00
2019-05-01T20:10:48.903Z,14.00
2019-05-01T20:13:18.138Z,13.90
2019-05-01T20:15:47.354Z,13.90
2019-05-01T20:18:16.649Z,13.90
2019-05-01T20:20:45.802Z,13.80
2019-05-01T20:23:15.041Z,13.70
2019-05-01T20:25:44.270Z,13.70
2019-05-01T20:28:13.431Z,13.70
2019-05-01T20:30:42.647Z,13.70
2019-05-01T20:33:11.794Z,13.80
2019-05-01T20:35:40.959Z,13.80
2019-05-01T20:38:10.150Z,13.70
2019-05-01T20:40:39.312Z,13.80
2019-05-01T20:43:08.521Z,13.80
2019-05-01T20:45:37.898Z,13.80
2019-05-01T20:48:08.317Z,13.90
2019-05-01T20:50:37.487Z,13.80
2019-05-01T20:53:06.687Z,13.80
2019-05-01T20:55:35.837Z,13.90
2019-05-01T20:58:15.713Z,13.80
2019-05-01T21:00:48.099Z,13.70
2019-05-01T21:03:18.190Z,13.50
2019-05-01T21:05:55.589Z,13.50
2019-05-01T21:08:39.127Z,13.40
2019-05-01T21:11:12.830Z,13.40
2019-05-01T21:13:41.570Z,13.40
2019-05-01T21:16:10.794Z,13.30
2019-05-01T21:18:40.038Z,13.30
2019-05-01T21:21:11.514Z,13.30
2019-05-01T21:23:40.682Z,13.20
2019-05-01T21:26:10.025Z,13.30
2019-05-01T21:28:42.119Z,13.20
2019-05-01T21:31:10.048Z,13.20
2019-05-01T21:33:40.781Z,13.20
2019-05-01T21:36:10.178Z,13.20
2019-05-01T21:38:39.356Z,13.10
2019-05-01T21:41:08.626Z,13.10
2019-05-01T21:43:37.787Z,13.00
2019-05-01T21:46:07.501Z,13.10
2019-05-01T21:48:36.726Z,13.00
2019-05-01T21:51:07.609Z,13.00
2019-05-01T21:53:37.303Z,13.00
2019-05-01T21:56:07.890Z,13.00
2019-05-01T21:58:37.230Z,13.00
2019-05-01T22:01:07.283Z,13.00
2019-05-01T22:03:36.822Z,13.00
2019-05-01T22:06:06.056Z,12.80
2019-05-01T22:08:39.106Z,12.70
2019-05-01T22:11:07.063Z,12.60
2019-05-01T22:13:36.606Z,12.50
2019-05-01T22:16:10.259Z,12.40
2019-05-01T22:18:41.102Z,12.20
2019-05-01T22:21:14.620Z,12.00
2019-05-01T22:24:01.649Z,11.90
2019-05-01T22:26:32.449Z,11.80
2019-05-01T22:29:09.427Z,11.80
2019-05-01T22:31:57.534Z,11.70
2019-05-01T22:34:46.179Z,11.80
2019-05-01T22:37:15.774Z,11.80
2019-05-01T22:39:46.607Z,11.90
2019-05-01T22:42:16.066Z,11.90
2019-05-01T22:44:45.241Z,11.80
2019-05-01T22:47:14.979Z,11.80
2019-05-01T22:49:45.402Z,11.80
2019-05-01T22:52:14.636Z,11.70
2019-05-01T22:54:45.004Z,11.70
2019-05-01T22:57:14.835Z,11.60
2019-05-01T22:59:45.356Z,11.60
2019-05-01T23:02:28.403Z,11.50
2019-05-01T23:04:56.132Z,11.50
2019-05-01T23:07:26.597Z,11.40
2019-05-01T23:09:59.306Z,11.40
2019-05-01T23:12:29.635Z,11.30
2019-05-01T23:14:58.800Z,11.30
2019-05-01T23:17:29.627Z,11.30
2019-05-01T23:19:59.075Z,11.20
2019-05-01T23:22:29.708Z,11.30
2019-05-01T23:24:58.934Z,11.30
2019-05-01T23:27:29.244Z,11.30
2019-05-01T23:29:59.094Z,11.40
2019-05-01T23:32:28.299Z,11.30
2019-05-01T23:34:57.460Z,11.30
2019-05-01T23:37:28.159Z,11.30
2019-05-01T23:39:57.422Z,11.20
2019-05-01T23:42:26.602Z,11.20
2019-05-01T23:44:55.831Z,11.20
2019-05-01T23:47:25.033Z,11.20
2019-05-01T23:49:54.329Z,11.20
2019-05-01T23:52:23.493Z,11.10
2019-05-01T23:54:52.715Z,11.20
2019-05-01T23:57:21.930Z,11.10
2019-05-01T23:59:51.098Z,11.10
